This is the latest recevied weather packets stored in our database for station/object AD6NH. If no packets are shown the sender has not sent any weather packets the latest 10 day(s).
| Time | Temp. | Humidity | Pressure | Rain* | Wind** | Luminosity | Snow |
|---|---|---|---|---|---|---|---|
| 1777768022 | 21.67° C | 60% | 1011.2 hPa | 0 mm | - | - | - |
| 1777767422 | 22.22° C | 59% | 1011.2 hPa | 0 mm | - | - | - |
| 1777766822 | 21.67° C | 60% | 1011.1 hPa | 0 mm | - | - | - |
| 1777766222 | 22.78° C | 57% | 1011.2 hPa | 0 mm | - | - | - |
| 1777765622 | 22.78° C | 59% | 1011.2 hPa | 0 mm | - | - | - |
| 1777765022 | 22.22° C | 60% | 1011.2 hPa | 0 mm | - | - | - |
| 1777764422 | 22.78° C | 59% | 1011.3 hPa | 0 mm | - | - | - |
| 1777763822 | 22.22° C | 59% | 1011.3 hPa | 0 mm | - | - | - |
| 1777763222 | 22.78° C | 58% | 1011.4 hPa | 0 mm | - | - | - |
| 1777762622 | 22.22° C | 61% | 1011.8 hPa | 0 mm | - | - | - |
| 1777762022 | 22.22° C | 60% | 1011.9 hPa | 0 mm | - | - | - |
| 1777761423 | 22.22° C | 60% | 1012.1 hPa | 0 mm | - | - | - |
| 1777760822 | 22.78° C | 60% | 1012.5 hPa | 0 mm | - | - | - |
| 1777760222 | 22.78° C | 60% | 1012.5 hPa | 0 mm | - | - | - |
| 1777759622 | 23.33° C | 58% | 1012.7 hPa | 0 mm | - | - | - |
| 1777759022 | 21.67° C | 63% | 1012.9 hPa | 0 mm | - | - | - |
| 1777758422 | 21.67° C | 62% | 1013 hPa | 0 mm | - | - | - |
| 1777757823 | 22.22° C | 60% | 1013.3 hPa | 0 mm | - | - | - |
| 1777757223 | 22.22° C | 61% | 1013.4 hPa | 0 mm | - | - | - |
| 1777756623 | 23.33° C | 58% | 1013.4 hPa | 0 mm | - | - | - |
| 1777756022 | 22.78° C | 61% | 1013.3 hPa | 0 mm | - | - | - |
| 1777755422 | 22.22° C | 61% | 1013.5 hPa | 0 mm | - | - | - |
| 1777754822 | 22.78° C | 60% | 1013.4 hPa | 0 mm | - | - | - |
| 1777754222 | 22.78° C | 59% | 1013.5 hPa | 0 mm | - | - | - |
| 1777753622 | 22.22° C | 61% | 1013.8 hPa | 0 mm | - | - | - |
* Rain latest hour (hover to see other rain measurements)
** Current wind speed in m/s (hover to see current wind gust speed)